AirNav   ATP
 
 356 users online  

7PN0 Tidmore Airport
Minersville, Pennsylvania, USA

GOING TO MINERSVILLE?


FAA INFORMATION EFFECTIVE 01 FEBRUARY 2018

Location

FAA Identifier: 7PN0
Lat/Long: 40-42-18.0000N / 076-14-11.0000W
40-42.300000N / 076-14.183333W
40.7050000 / -76.2363889
(estimated)
Elevation: 930 ft. / 283 m (estimated)
Variation: 11W (1985)
From city: 1 mile NE of MINERSVILLE, PA
Time zone: UTC -5 (UTC -4 during Daylight Saving Time)
Zip code: 17901

Airport Operations

Airport use: Private use. Permission required prior to landing
Activation date: 03/1961
Control tower: no
ARTCC: NEW YORK CENTER
FSS: WILLIAMSPORT FLIGHT SERVICE STATION
Attendance: UNATNDD
Pattern altitude: 1730 ft. MSL
Wind indicator: yes
Segmented circle: no

Airport Communications

WX AWOS-3 at ZER (6 nm W): 127.575 (570-544-2778)
WX AWOS-3 at N79 (16 nm NW): 119.175 (570-672-0389)

Nearby radio navigation aids

VOR radial/distance  VOR name  Freq  Var
HZLr206/(17.0)HAZLETON VOR109.4009W
RAVr072/18.9RAVINE VORTAC114.6011W
ETXr295/26.2EAST TEXAS VOR/DME110.2009W
MIPr143/27.3MILTON VORTAC109.2009W
SEGr108/29.9SELINSGROVE VOR/DME110.4008W
LRPr013/35.2LANCASTER VOR/DME117.3009W
FJCr278/35.6ALLENTOWN VORTAC117.5010W

 
NDB name  Hdg/Dist  Freq  Var  ID
BELLGROVE052/21.732810WBZJ -... --.. .---

Airport Services

Parking: tiedowns
Bottled oxygen: NONE
Bulk oxygen: NONE

Runway Information

Runway 8/26

Dimensions: 2000 x 150 ft. / 610 x 46 m
Surface: turf, in good condition
Runway edge markings: 08/26 OUTLINED WITH YELLOW TIRES.
RUNWAY 8  RUNWAY 26
Traffic pattern: leftleft
Runway end identifier lights: nono
Obstructions: 33 ft. tree, 492 ft. from runway18 ft. trees, 271 ft. from runway

Airport Ownership and Management from official FAA records

Ownership: Privately-owned
Owner: ARGIE D. TIDMORE
PO BOX 86
POTTSVILLE, PA 17901
Phone 570-622-1360
EXT. 26
Manager: ARGIE D. TIDMORE
PO BOX 86
POTTSVILLE, PA 17901
Phone 570-622-1360
EXT. 26

Airport Operational Statistics

Aircraft based on the field: 1
Single engine airplanes: 1
    

Instrument Procedures

There are no published instrument procedures at 7PN0.

Some nearby airports with instrument procedures:

KZER - Schuylkill County/Joe Zerbey Airport (6 nm W)
N79 - Northumberland County Airport (16 nm NW)
74N - Bendigo Airport (17 nm SW)
N13 - Bloomsburg Municipal Airport (20 nm NW)
KHZL - Hazleton Regional Airport (20 nm NE)
 
Loc | Ops | Rwys | IFR | FBO | Links
Com | Nav | Svcs | Stats | Notes

AirNav Hotels Sweepstakes
 
Area around 7PN0 (Tidmore Airport)
 
Road maps at: MapQuest Bing Google
 
Aerial photo
No photo
 
Sectional chart

 
Airport distance calculator
Flying to Tidmore Airport? Find the distance to fly.

From to 7PN0

Sunrise and sunset
Times for 24-Feb-2018
 Local
(UTC-5)
 Zulu
(UTC)
Morning civil twilight06:2011:20
Sunrise06:4711:47
Sunset17:4922:49
Evening civil twilight18:1723:17

Current date and time
Zulu (UTC)  24-Feb-2018 08:38:40
Local (UTC-5)  24-Feb-2018 03:38:40
 
METAR
KHZL 
20nm NE 
240815Z AUTO 00000KT 1/4SM FG OVC001 04/03 A3016 RMK AO2
KMUI 
23nm SW 
240814Z AUTO 00000KT 3/8SM FG VV000 05/05 A3018 RMK AO2 SLP226 RVRNO $
KRDG 
24nm SE 
240754Z AUTO 00000KT 1SM R36/3000V5000FT BR OVC003 06/06 A3017 RMK AO2 TWR VIS 3 SLP222 T00610061
KSEG 
29nm W 
240809Z AUTO 00000KT 3/4SM BR OVC002 05/04 A3018 RMK AO2 T00500044
KXLL 
35nm E 
240815Z AUTO 23006KT 1 1/4SM BR OVC002 06/06 A3019 RMK AO2
KLNS 
35nm S 
240815Z AUTO 00000KT 1/4SM FG VV002 06/06 A3018 RMK AO2 T00610061
KABE 
36nm E 
240751Z AUTO 26005KT 2 1/2SM BR OVC005 06/04 A3018 RMK AO2 SFC VIS 5 SLP221 T00610044
KMDT 
39nm SW 
240819Z 01003KT 1SM R13/6000VP6000FT BR OVC003 07/06 A3018 RMK AO2 T00670061
TAF
KMUI 
23nm SW 
222352Z 2223/2401 05009KT 4800 BR OVC004 620112 510207 QNH3051INS BECMG 2309/2310 09009KT 4800 -RA OVC005 660052 QNH3030INS TEMPO 2310/2314 -FZRA 690001 620201 BECMG 2319/2320 15009KT 8000 -RA OVC004 QNH3025INS BECMG 2400/2401 17009KT 4800 BR OVC004 QNH3025INS TX04/2310Z TN00/2312Z LAST NO AMDS AFT 2318 NEXT 2311
KRDG 
24nm SE 
240520Z 2406/2506 24006KT 6SM BR OVC005 TEMPO 2406/2408 3SM BR FM240800 VRB03KT 6SM BR OVC005 TEMPO 2408/2412 3SM BR FM241400 VRB03KT P6SM OVC035 FM241700 VRB03KT P6SM -SHRA OVC035 FM242100 VRB03KT P6SM -RA OVC025 FM250300 VRB03KT 5SM -DZ BR OVC015
NOTAMs
Click for the latest NOTAMs
NOTAMs are issued by the DoD/FAA and will open in a separate window not controlled by AirNav.

 

 
 

Would you like to see your business listed on this page?

 If your business provides an interesting product or service to pilots, flight crews, aircraft, or users of the Tidmore Airport, you should consider listing it here.  To start the listing process, click on the button below
 
Add a business
 

Other Pages about Tidmore Airport

Update a link
 
Copyright © AirNav, LLC. All rights reserved. Privacy Policy  Contact